Five Islands, Maine
Current Conditions -  °F | °C
As of 6:53 AM on Friday 19 Dec 2014 (Local Time) from KIWI Reporting Station
Broken Clouds Broken Clouds  
Wind Chill: 30°   Ceiling: 5500
Heat Index: 30°   Visibility: 10mi
Dew Point: 22°   Wind: 3mph
Humidity: 72%   Direction: 280°W
Pressure: 29.87"   Gusts: NA
Location:  43.8074°N, 69.7472°W
Report Text: KIWI 191153Z AUTO 28003KT 10SM BKN055 M01/M06 A2987 RMK AO2 SLP116 70004 T10111056 10000 21022 53017
Loading
Personal Weather Stations






























Interactive Weather Map New forecast layout! Learn more

10-Day Weather Forecast

Advertisements
Track Severe Weather on mobile